• Join FlightAware (Why Join?)
  • Login
  • US Flag 
05:02AM EDT


 

Airport Tracker/Info


-or-


 

Live Flight TrackerFlight Track Log ✈ EGF3650 ✈ 17-Apr-2013 ✈ KLAX - KIAH

Flight Track Log - Related Links

Times and Time Zones

All times are in EDT time to prevent confusion due to time zone crossing. See the EGF3650 flight status page for this flight to view local times or setup timezone preferences in your user account.

Time Position Orientation Groundspeed Altitude Reporting Facility
EDT Latitude Longitude Course Direction KTS MPH feet Rate Location/Type
12:23AM 33.9333 -118.4500 229° Southwest 184 212 2,300  Level Southern California TRACON
12:24AM 33.8872 -118.5150 229° Southwest 251 289 6,000 2,760 Climbing Los Angeles Center
12:25AM 33.8167 -118.5236 186° South 274 315 8,500 2,040 Climbing Los Angeles Center
12:26AM 33.7322 -118.5208 178° South 314 361 10,300 2,100 Climbing Los Angeles Center
12:27AM 33.6644 -118.4217 129° Southeast 346 398 12,800 2,040 Climbing Los Angeles Center
12:28AM 33.6442 -118.3061 102° East 363 418 14,600 1,560 Climbing Los Angeles Center
12:29AM 33.6447 -118.1789 90° East 386 444 16,100 1,260 Climbing Los Angeles Center
12:30AM 33.6450 -118.0689 90° East 404 465 17,200 1,320 Climbing Los Angeles Center
12:31AM 33.6447 -117.8942 90° East 432 497 18,900 1,560 Climbing Los Angeles Center
12:32AM 33.6444 -117.7439 90° East 447 514 20,400 1,620 Climbing Los Angeles Center
12:33AM 33.6442 -117.5603 90° East 458 527 22,200 1,620 Climbing Los Angeles Center
12:34AM 33.6433 -117.4067 90° East 461 531 23,700 1,440 Climbing Los Angeles Center
12:35AM 33.6331 -117.2500 94° East 470 541 25,200 1,320 Climbing Los Angeles Center
12:36AM 33.6131 -117.0950 99° East 473 544 26,500 1,080 Climbing Los Angeles Center
12:37AM 33.5958 -116.9361 97° East 482 555 27,500 1,020 Climbing Los Angeles Center
12:38AM 33.5761 -116.7667 98° East 490 564 28,600 1,020 Climbing Los Angeles Center
12:39AM 33.5603 -116.5997 96° East 500 575 29,600 960 Climbing Los Angeles Center
12:40AM 33.5394 -116.4308 98° East 507 583 30,600 960 Climbing Los Angeles Center
12:41AM 33.5214 -116.2622 97° East 507 583 31,600 960 Climbing Los Angeles Center
12:42AM 33.5008 -116.0911 98° East 514 592 32,600 960 Climbing Los Angeles Center
12:43AM 33.4808 -115.9200 98° East 517 595 33,600 1,020 Climbing Los Angeles Center
12:44AM 33.4611 -115.7500 98° East 515 593 34,700 1,020 Climbing Los Angeles Center
12:45AM 33.4406 -115.5794 98° East 516 594 35,700 900 Climbing Los Angeles Center
12:46AM 33.4144 -115.3753 99° East 518 596 36,600 600 Climbing Los Angeles Center
12:47AM 33.3956 -115.2053 98° East 516 594 37,000 180 Climbing Los Angeles Center
12:48AM 33.3731 -115.0267 99° East 534 615 37,000  Level Los Angeles Center
12:49AM 33.3469 -114.8394 99° East 568 654 37,000  Level Los Angeles Center
12:50AM 33.3250 -114.6542 98° East 566 651 37,000  Level Los Angeles Center
12:51AM 33.3211 -114.5992 95° East 565 650 37,000  Level Albuquerque Center
12:52AM 33.2944 -114.4117 100° East 571 657 37,000  Level Albuquerque Center
12:53AM 33.2767 -114.2228 96° East 572 658 37,000  Level Albuquerque Center
12:54AM 33.2581 -114.0317 97° East 577 664 37,000  Level Albuquerque Center
12:55AM 33.2386 -113.8397 97° East 579 666 37,000  Level Albuquerque Center
12:56AM 33.2183 -113.6486 97° East 580 667 37,000  Level Albuquerque Center
12:57AM 33.1994 -113.4550 97° East 585 673 37,000  Level Albuquerque Center
12:58AM 33.1800 -113.2608 97° East 587 676 37,000  Level Albuquerque Center
12:59AM 33.1589 -113.0656 97° East 588 677 37,000  Level Albuquerque Center
01:00AM 33.1375 -112.8703 97° East 590 679 37,000  Level Albuquerque Center
01:01AM 33.1167 -112.6742 97° East 591 680 37,000  Level Albuquerque Center
01:02AM 33.0956 -112.4794 97° East 589 678 37,000  Level Albuquerque Center
01:03AM 33.0700 -112.2550 98° East 597 687 37,000  Level Albuquerque Center
01:04AM 33.0519 -112.0875 97° East 601 692 37,000  Level Albuquerque Center
01:05AM 33.0250 -111.8533 98° East 601 692 37,000  Level Albuquerque Center
01:06AM 33.0019 -111.6519 98° East 601 692 37,000  Level Albuquerque Center
01:07AM 32.9792 -111.4606 98° East 604 695 37,000  Level Albuquerque Center
01:08AM 32.9564 -111.2636 98° East 606 697 37,000  Level Albuquerque Center
01:09AM 32.9322 -111.0664 98° East 605 696 37,000  Level Albuquerque Center
01:10AM 32.9075 -110.8686 98° East 608 700 37,000  Level Albuquerque Center
01:11AM 32.8833 -110.6708 98° East 608 700 37,000  Level Albuquerque Center
01:12AM 32.8589 -110.4817 99° East 607 699 37,000  Level Albuquerque Center
01:13AM 32.8344 -110.2847 98° East 607 699 37,000  Level Albuquerque Center
01:14AM 32.8022 -110.0511 99° East 604 695 37,000  Level Albuquerque Center
01:15AM 32.7747 -109.8528 99° East 612 704 37,000  Level Albuquerque Center
01:16AM 32.7506 -109.6586 98° East 608 700 37,000  Level Albuquerque Center
01:17AM 32.7242 -109.4625 99° East 608 700 37,000  Level Albuquerque Center
01:18AM 32.6964 -109.2650 99° East 612 704 37,000  Level Albuquerque Center
01:19AM 32.6694 -109.0694 99° East 614 707 37,000  Level Albuquerque Center
01:20AM 32.6408 -108.8725 100° East 619 712 37,000  Level Albuquerque Center
01:21AM 32.6081 -108.6347 99° East 620 713 37,000  Level Albuquerque Center
01:22AM 32.5797 -108.4383 100° East 617 710 37,000  Level Albuquerque Center
01:23AM 32.5508 -108.2400 100° East 617 710 37,000  Level Albuquerque Center
01:24AM 32.5222 -108.0414 100° East 618 711 37,000  Level Albuquerque Center
01:25AM 32.4917 -107.8436 100° East 618 711 37,000  Level Albuquerque Center
01:26AM 32.4653 -107.6586 100° East 617 710 37,000  Level Albuquerque Center
01:27AM 32.4336 -107.4475 100° East 617 710 37,000  Level Albuquerque Center
01:28AM 32.4047 -107.2483 100° East 620 713 37,000  Level Albuquerque Center
01:29AM 32.3689 -107.0156 100° East 617 710 37,000  Level Albuquerque Center
01:30AM 32.3408 -106.8358 100° East 621 715 37,000  Level Albuquerque Center
01:31AM 32.3092 -106.6375 101° East 618 711 37,000  Level Albuquerque Center
01:32AM 32.2767 -106.4386 101° East 619 712 37,000  Level Albuquerque Center
01:33AM 32.2433 -106.2386 101° East 619 712 37,000  Level Albuquerque Center
01:34AM 32.2106 -106.0389 101° East 619 712 37,000  Level Albuquerque Center
01:35AM 32.1789 -105.8414 101° East 614 707 37,000  Level Albuquerque Center
01:36AM 32.1456 -105.6450 101° East 611 703 37,000  Level Albuquerque Center
01:37AM 32.1122 -105.4475 101° East 612 704 37,000  Level Albuquerque Center
01:38AM 32.0786 -105.2508 101° East 613 705 37,000  Level Albuquerque Center
01:39AM 32.0456 -105.0547 101° East 610 702 37,000  Level Albuquerque Center
01:40AM 32.0117 -104.8564 101° East 613 705 37,000 -60 Level Albuquerque Center
01:41AM 31.9711 -104.6217 101° East 610 702 36,900 -60 Descending Albuquerque Center
01:42AM 31.9361 -104.4261 102° East 610 702 36,900  Level Albuquerque Center
01:43AM 31.9008 -104.2317 102° East 608 700 37,000  Climbing Albuquerque Center
01:44AM 31.8661 -104.0378 102° East 609 701 37,000  Level Albuquerque Center
01:45AM 31.8331 -103.8406 101° East 609 701 37,000  Level Albuquerque Center
01:46AM 31.7975 -103.6497 102° East 611 703 37,000  Level Albuquerque Center
01:47AM 31.7600 -103.4567 103° East 611 703 37,000  Level Albuquerque Center
01:48AM 31.7211 -103.2556 103° East 612 704 37,000  Level Albuquerque Center
01:49AM 31.6856 -103.0606 102° East 612 704 37,000  Level Albuquerque Center
01:50AM 31.6472 -102.8669 103° East 610 702 37,000  Level Albuquerque Center
01:51AM 31.6100 -102.6725 103° East 609 701 37,000  Level Albuquerque Center
01:52AM 31.5725 -102.4767 103° East 611 703 37,000  Level Albuquerque Center
01:53AM 31.5342 -102.2789 103° East 613 705 37,000  Level Albuquerque Center
01:54AM 31.4975 -102.0997 103° East 625 719 37,000  Level Albuquerque Center
01:55AM 31.4564 -101.8831 102° East 611 703 37,000  Level Albuquerque Center
01:56AM 31.4169 -101.6908 103° East 604 695 37,000 -60 Level Albuquerque Center
01:58AM 31.3400 -101.3111 103° East 599 689 36,900 -60 Descending Houston Center
01:59AM 31.3006 -101.1214 104° East 600 690 36,900  Level Houston Center
02:00AM 31.2628 -100.9358 103° East 602 693 36,900  Level Houston Center
02:01AM 31.2244 -100.7458 103° East 601 692 37,000  Climbing Houston Center
02:02AM 31.1833 -100.5583 104° East 597 687 37,000  Level Houston Center
02:03AM 31.1450 -100.3675 103° East 600 690 37,000  Level Houston Center
02:04AM 31.1058 -100.1789 104° East 599 689 37,000  Level Houston Center
02:05AM 31.0656 -99.9911 104° East 597 687 37,000  Level Houston Center
02:06AM 31.0247 -99.8028 104° East 597 687 37,000  Level Houston Center
02:07AM 30.9850 -99.6139 104° East 598 688 37,000  Level Houston Center
02:08AM 30.9433 -99.4261 104° East 598 688 37,000  Level Houston Center
02:09AM 30.9033 -99.2394 104° East 595 685 37,000  Level Houston Center
02:10AM 30.8617 -99.0600 105° East 591 680 37,000  Level Houston Center
02:11AM 30.8231 -98.8742 104° East 588 677 37,000  Level Houston Center
02:12AM 30.7817 -98.6900 105° East 586 674 37,000  Level Houston Center
02:13AM 30.7403 -98.5058 105° East 585 673 37,000  Level Houston Center
02:14AM 30.6983 -98.3219 105° East 586 674 37,000  Level Houston Center
02:15AM 30.6567 -98.1383 105° East 585 673 37,000  Level Houston Center
02:16AM 30.6139 -97.9539 105° East 588 677 37,000  Level Houston Center
02:17AM 30.5717 -97.7714 105° East 584 672 37,000  Level Houston Center
02:18AM 30.5289 -97.5894 105° East 585 673 37,000  Level Houston Center
02:19AM 30.4861 -97.4081 105° East 584 672 37,000  Level Houston Center
02:20AM 30.4439 -97.2269 105° East 584 672 37,000 -840 Level Houston Center
02:21AM 30.4028 -97.0514 105° East 571 657 35,400 -2,340 Descending Houston Center
02:22AM 30.3628 -96.8806 105° East 553 636 32,400 -3,180 Descending Houston Center
02:23AM 30.3239 -96.7219 106° East 532 612 29,400 -3,240 Descending Houston Center
02:24AM 30.2947 -96.5944 105° East 516 594 26,900 -3,000 Descending Houston Center
02:24AM 30.2839 -96.5561 108° East 518 596 26,100 -3,360 Descending Houston Center
02:25AM 30.2569 -96.4417 105° East 499 574 23,500 -3,540 Descending Houston Center
02:25AM 30.2481 -96.3997 104° East 506 582 22,600 -3,060 Descending Houston Center
02:26AM 30.2214 -96.2933 106° East 472 543 20,400 -3,120 Descending Houston Center
02:26AM 30.2125 -96.2550 105° East 480 552 19,500 -3,840 Descending Houston Center
02:27AM 30.1864 -96.1522 106° East 443 510 16,600 -3,660 Descending Houston Center
02:27AM 30.1781 -96.1192 106° East 445 512 15,800 -3,780 Descending Houston Center
02:28AM 30.1358 -96.0278 118° Southeast 423 487 12,800 -3,900 Descending Houston Center
02:28AM 30.1244 -95.9989 114° Southeast 420 483 11,900 -2,520 Descending Houston Center
02:29AM 30.0881 -95.9125 116° Southeast 392 451 10,300 -1,800 Descending Houston Center
02:29AM 30.0772 -95.8842 114° Southeast 399 459 10,100 -1,380 Descending Houston Center
02:30AM 30.0458 -95.8136 117° Southeast 297 342 8,900 -1,620 Descending Houston Center
02:30AM 30.0408 -95.7961 108° East 316 364 8,500 -1,980 Descending Houston Center
02:31AM 30.0136 -95.7331 116° Southeast 274 315 6,900 -2,040 Descending Houston Center
02:32AM 29.9919 -95.6558 108° East 255 293 5,000 -1,500 Descending Houston Center
02:33AM 29.9911 -95.5764 91° East 235 270 3,900 -1,200 Descending Houston Center
02:34AM 29.9914 -95.5089 90° East 202 232 2,600 -1,320 Descending Houston Center